createdAt,value
2017-11-03T00:02:13.280Z,11.00
2017-11-03T00:04:47.209Z,11.10
2017-11-03T00:07:21.025Z,11.10
2017-11-03T00:09:55.544Z,11.00
2017-11-03T00:12:30.550Z,11.00
2017-11-03T00:15:04.593Z,10.90
2017-11-03T00:17:38.429Z,10.90
2017-11-03T00:20:13.114Z,10.80
2017-11-03T00:22:47.243Z,10.80
2017-11-03T00:25:21.226Z,10.70
2017-11-03T00:27:55.749Z,10.60
2017-11-03T00:30:29.889Z,10.60
2017-11-03T00:33:03.897Z,10.50
2017-11-03T00:35:37.907Z,10.50
2017-11-03T00:38:11.671Z,10.60
2017-11-03T00:40:45.492Z,10.60
2017-11-03T00:43:19.609Z,10.60
2017-11-03T00:45:55.591Z,10.60
2017-11-03T00:48:29.393Z,10.60
2017-11-03T00:51:03.893Z,10.60
2017-11-03T00:53:38.421Z,10.60
2017-11-03T00:56:12.010Z,10.50
2017-11-03T00:58:46.054Z,10.40
2017-11-03T01:01:19.769Z,10.40
2017-11-03T01:03:53.458Z,10.40
2017-11-03T01:06:28.078Z,10.40
2017-11-03T01:09:02.075Z,10.40
2017-11-03T01:11:36.600Z,10.30
2017-11-03T01:14:10.511Z,10.30
2017-11-03T01:16:44.520Z,10.30
2017-11-03T01:19:18.305Z,10.20
2017-11-03T01:21:52.255Z,10.10
2017-11-03T01:24:27.064Z,10.00
2017-11-03T01:27:01.662Z,10.00
2017-11-03T01:29:35.841Z,10.00
2017-11-03T01:32:09.589Z,10.00
2017-11-03T01:34:43.233Z,9.90
2017-11-03T01:37:18.139Z,9.90
2017-11-03T01:39:52.050Z,9.90
2017-11-03T01:42:26.109Z,9.80
2017-11-03T01:45:00.239Z,9.80
2017-11-03T01:47:33.887Z,9.80
2017-11-03T01:50:07.974Z,9.80
2017-11-03T01:52:41.931Z,9.80
2017-11-03T01:55:16.301Z,9.80
2017-11-03T01:57:51.028Z,9.80
2017-11-03T02:00:24.688Z,9.70
2017-11-03T02:02:58.535Z,9.70
2017-11-03T02:05:33.910Z,9.60
2017-11-03T02:08:08.383Z,9.70
2017-11-03T02:10:42.936Z,9.60
2017-11-03T02:13:17.744Z,9.60
2017-11-03T02:15:52.791Z,9.60
2017-11-03T02:18:26.964Z,9.60
2017-11-03T02:21:01.618Z,9.60
2017-11-03T02:23:35.670Z,9.60
2017-11-03T02:26:09.638Z,9.70
2017-11-03T02:28:43.567Z,9.80
2017-11-03T02:31:17.474Z,9.90
2017-11-03T02:33:52.094Z,9.90
2017-11-03T02:36:26.053Z,10.00
2017-11-03T02:39:00.866Z,10.10
2017-11-03T02:41:34.841Z,10.10
2017-11-03T02:44:09.986Z,10.20
2017-11-03T02:46:43.859Z,10.30
2017-11-03T02:49:18.303Z,10.30
2017-11-03T02:51:52.702Z,10.30
2017-11-03T02:54:27.468Z,10.40
2017-11-03T02:57:01.123Z,10.50
2017-11-03T02:59:35.266Z,10.50
2017-11-03T03:02:10.100Z,10.50
2017-11-03T03:04:43.809Z,10.50
2017-11-03T03:07:17.989Z,10.50
2017-11-03T03:09:52.209Z,10.50
2017-11-03T03:12:26.635Z,10.50
2017-11-03T03:15:01.768Z,10.50
2017-11-03T03:17:35.888Z,10.50
2017-11-03T03:20:10.243Z,11.30
2017-11-03T03:22:44.488Z,10.50
2017-11-03T03:25:19.002Z,10.50
2017-11-03T03:27:53.505Z,10.40
2017-11-03T03:30:27.353Z,10.40
2017-11-03T03:33:01.945Z,10.30
2017-11-03T03:35:37.033Z,10.40
2017-11-03T03:38:11.137Z,10.30
2017-11-03T03:40:45.736Z,10.30
2017-11-03T03:43:19.914Z,10.20
2017-11-03T03:45:53.775Z,10.20
2017-11-03T03:48:27.479Z,10.20
2017-11-03T03:51:02.049Z,9.70
2017-11-03T03:53:36.342Z,10.30
2017-11-03T03:56:10.798Z,10.30
2017-11-03T03:58:44.787Z,10.30
2017-11-03T04:01:20.039Z,10.30
2017-11-03T04:03:54.176Z,10.40
2017-11-03T04:06:28.236Z,10.40
2017-11-03T04:09:02.821Z,10.30
2017-11-03T04:11:36.769Z,10.30
2017-11-03T04:14:11.793Z,10.20
2017-11-03T04:16:45.809Z,10.10
2017-11-03T04:19:19.973Z,10.00
2017-11-03T04:21:54.448Z,9.90
2017-11-03T04:24:28.366Z,9.80
2017-11-03T04:27:03.171Z,9.80
2017-11-03T04:29:37.222Z,9.70
2017-11-03T04:32:12.019Z,9.70
2017-11-03T04:34:46.295Z,8.70
2017-11-03T04:37:20.933Z,9.70
2017-11-03T04:39:55.086Z,9.80
2017-11-03T04:42:30.292Z,9.70
2017-11-03T04:45:05.041Z,9.70
2017-11-03T04:47:39.444Z,9.70
2017-11-03T04:50:13.993Z,9.60
2017-11-03T04:52:48.047Z,9.60
2017-11-03T04:55:22.924Z,9.60
2017-11-03T04:57:57.467Z,9.50
2017-11-03T05:00:31.033Z,9.50
2017-11-03T05:03:05.169Z,9.50
2017-11-03T05:05:39.770Z,9.50
2017-11-03T05:08:14.286Z,9.40
2017-11-03T05:10:48.836Z,9.40
2017-11-03T05:13:23.342Z,9.30
2017-11-03T05:15:58.058Z,9.20
2017-11-03T05:18:32.897Z,9.10
2017-11-03T05:21:08.554Z,9.00
2017-11-03T05:23:42.280Z,9.00
2017-11-03T05:26:17.103Z,8.90
2017-11-03T05:28:50.997Z,8.90
2017-11-03T05:31:26.221Z,8.90
2017-11-03T05:34:00.736Z,9.00
2017-11-03T05:36:35.126Z,9.00
2017-11-03T05:39:09.105Z,9.10
2017-11-03T05:41:42.910Z,9.10
2017-11-03T05:44:18.028Z,9.10
2017-11-03T05:46:52.244Z,9.00
2017-11-03T05:49:26.130Z,9.10
2017-11-03T05:51:59.839Z,9.20
2017-11-03T05:54:34.473Z,9.20
2017-11-03T05:57:09.274Z,9.30
2017-11-03T05:59:43.388Z,9.30
2017-11-03T06:02:17.537Z,9.40
2017-11-03T06:04:52.309Z,9.50
2017-11-03T06:07:26.772Z,9.50
2017-11-03T06:10:01.487Z,9.60
2017-11-03T06:12:35.621Z,9.70
2017-11-03T06:15:09.314Z,9.80
2017-11-03T06:17:43.539Z,9.80
2017-11-03T06:20:17.841Z,9.80
2017-11-03T06:22:52.483Z,9.90
2017-11-03T06:25:27.308Z,9.90
2017-11-03T06:28:01.512Z,9.90
2017-11-03T06:30:35.574Z,9.90
2017-11-03T06:33:10.207Z,9.90
2017-11-03T06:35:43.838Z,10.00
2017-11-03T06:38:17.491Z,10.10
2017-11-03T06:40:51.578Z,10.20
2017-11-03T06:43:25.616Z,10.20
2017-11-03T06:46:00.522Z,10.30
2017-11-03T06:48:35.039Z,10.30
2017-11-03T06:51:09.102Z,10.30
2017-11-03T06:53:42.908Z,10.40
2017-11-03T06:56:17.312Z,10.40
2017-11-03T07:01:26.835Z,10.50
2017-11-03T07:04:01.259Z,10.50
2017-11-03T07:06:35.570Z,10.50
2017-11-03T07:09:10.079Z,10.60
2017-11-03T07:11:43.958Z,10.60
2017-11-03T07:14:17.933Z,10.70
2017-11-03T07:16:51.894Z,10.80
2017-11-03T07:19:25.931Z,10.90
2017-11-03T07:21:59.934Z,11.00
2017-11-03T07:24:34.162Z,11.10
2017-11-03T07:27:08.675Z,11.30
2017-11-03T07:29:43.160Z,11.40
2017-11-03T07:32:17.159Z,11.50
2017-11-03T07:34:51.164Z,11.60
2017-11-03T07:37:25.852Z,11.80
2017-11-03T07:40:00.101Z,12.10
2017-11-03T07:42:34.054Z,12.20
2017-11-03T07:45:08.495Z,12.20
2017-11-03T07:47:43.230Z,12.30
2017-11-03T07:50:17.658Z,13.00
2017-11-03T07:52:51.813Z,13.80
2017-11-03T07:55:25.554Z,14.00
2017-11-03T07:57:59.432Z,14.00
2017-11-03T08:00:33.254Z,13.90
2017-11-03T08:03:07.118Z,13.90
2017-11-03T08:05:41.063Z,14.00
2017-11-03T08:08:15.667Z,13.80
2017-11-03T08:10:50.174Z,13.70
2017-11-03T08:13:24.456Z,13.50
2017-11-03T08:15:58.234Z,13.50
2017-11-03T08:18:32.970Z,13.70
2017-11-03T08:21:07.222Z,13.70
2017-11-03T08:23:41.202Z,13.60
2017-11-03T08:26:16.544Z,13.70
2017-11-03T08:28:51.569Z,13.90
2017-11-03T08:31:25.688Z,14.10
2017-11-03T08:34:00.277Z,13.90
2017-11-03T08:36:34.713Z,13.60
2017-11-03T08:39:10.507Z,13.40
2017-11-03T08:41:45.045Z,13.20
2017-11-03T08:44:19.732Z,13.20
2017-11-03T08:46:54.653Z,13.20
2017-11-03T08:49:30.324Z,13.20
2017-11-03T08:52:04.712Z,13.10
2017-11-03T08:54:39.660Z,13.00
2017-11-03T08:57:14.017Z,12.90
2017-11-03T08:59:48.501Z,12.90
2017-11-03T09:02:22.689Z,12.90
2017-11-03T09:04:56.487Z,13.00
2017-11-03T09:07:30.269Z,13.00
2017-11-03T09:10:04.114Z,13.10
2017-11-03T09:12:38.455Z,13.40
2017-11-03T09:15:13.456Z,13.50
2017-11-03T09:17:47.941Z,13.90
2017-11-03T09:20:23.049Z,15.10
2017-11-03T09:22:57.161Z,16.50
2017-11-03T09:25:30.927Z,16.90
2017-11-03T09:28:04.777Z,18.70
2017-11-03T09:30:38.715Z,20.40
2017-11-03T09:33:13.315Z,20.40
2017-11-03T09:35:48.136Z,19.90
2017-11-03T09:38:22.012Z,20.00
2017-11-03T09:40:55.932Z,20.10
2017-11-03T09:43:29.699Z,20.50
2017-11-03T09:46:04.496Z,21.60
2017-11-03T09:48:38.513Z,21.50
2017-11-03T09:51:12.553Z,22.30
2017-11-03T09:53:46.513Z,22.80
2017-11-03T09:56:20.117Z,22.70
2017-11-03T09:58:54.013Z,21.90
2017-11-03T10:01:28.702Z,22.70
2017-11-03T10:04:03.972Z,23.40
2017-11-03T10:06:37.652Z,23.90
2017-11-03T10:09:12.824Z,23.90
2017-11-03T10:11:48.125Z,23.50
2017-11-03T10:14:22.431Z,23.50
2017-11-03T10:16:56.304Z,21.70
2017-11-03T10:19:31.428Z,20.60
2017-11-03T10:22:05.049Z,19.90
2017-11-03T10:24:39.432Z,19.50
2017-11-03T10:27:14.584Z,19.10
2017-11-03T10:29:48.409Z,18.80
2017-11-03T10:32:23.949Z,18.60
2017-11-03T10:37:35.421Z,18.40
2017-11-03T10:40:09.726Z,18.40
2017-11-03T10:42:43.476Z,18.60
2017-11-03T10:45:17.377Z,19.20
2017-11-03T10:47:51.356Z,20.00
2017-11-03T10:50:25.685Z,20.80
2017-11-03T10:53:01.060Z,21.30
2017-11-03T10:55:35.074Z,21.70
2017-11-03T10:58:09.002Z,22.20
2017-11-03T11:00:42.768Z,22.50
2017-11-03T11:03:17.484Z,22.70
2017-11-03T11:05:53.133Z,22.60
2017-11-03T11:08:27.434Z,22.60
2017-11-03T11:11:02.234Z,22.50
2017-11-03T11:13:36.329Z,22.50
2017-11-03T11:16:10.727Z,22.30
2017-11-03T11:18:45.231Z,22.30
2017-11-03T11:21:20.449Z,22.20
2017-11-03T11:23:54.879Z,22.20
2017-11-03T11:26:28.889Z,22.20
2017-11-03T11:29:03.525Z,21.70
2017-11-03T11:31:38.359Z,21.10
2017-11-03T11:34:12.279Z,20.60
2017-11-03T11:36:46.375Z,20.30
2017-11-03T11:39:21.396Z,19.90
2017-11-03T11:41:55.323Z,19.80
2017-11-03T11:44:29.829Z,19.70
2017-11-03T11:47:03.835Z,19.70
2017-11-03T11:49:38.454Z,19.50
2017-11-03T11:52:12.513Z,19.40
2017-11-03T11:54:47.409Z,19.20
2017-11-03T11:57:21.885Z,18.90
2017-11-03T11:59:56.287Z,18.80
2017-11-03T12:02:31.561Z,18.70
2017-11-03T12:05:06.479Z,18.60
2017-11-03T12:07:40.681Z,18.50
2017-11-03T12:10:14.653Z,18.50
2017-11-03T12:12:48.593Z,18.40
2017-11-03T12:15:23.604Z,18.40
2017-11-03T12:17:58.198Z,18.40
2017-11-03T12:20:32.697Z,18.30
2017-11-03T12:23:07.583Z,18.20
2017-11-03T12:25:41.929Z,18.00
2017-11-03T12:28:17.320Z,17.90
2017-11-03T12:30:52.207Z,17.70
2017-11-03T12:33:27.263Z,17.60
2017-11-03T12:36:01.413Z,17.40
2017-11-03T12:38:36.563Z,17.30
2017-11-03T12:41:10.646Z,17.30
2017-11-03T12:43:44.641Z,17.20
2017-11-03T12:46:18.893Z,17.10
2017-11-03T12:48:53.020Z,17.10
2017-11-03T12:51:26.923Z,17.20
2017-11-03T12:54:01.376Z,17.20
2017-11-03T12:59:11.579Z,17.10
2017-11-03T13:01:46.071Z,17.10
2017-11-03T13:04:19.805Z,14.10
2017-11-03T13:06:54.842Z,17.10
2017-11-03T13:09:30.172Z,17.00
2017-11-03T13:12:05.002Z,16.90
2017-11-03T13:14:40.262Z,16.90
2017-11-03T13:17:15.185Z,16.90
2017-11-03T13:19:50.235Z,16.80
2017-11-03T13:22:24.793Z,16.70
2017-11-03T13:24:58.519Z,16.70
2017-11-03T13:27:32.800Z,16.60
2017-11-03T13:32:46.474Z,16.50
2017-11-03T13:37:58.807Z,16.30
2017-11-03T13:40:32.632Z,16.30
2017-11-03T13:43:07.921Z,16.20
2017-11-03T13:45:43.203Z,16.20
2017-11-03T13:48:18.256Z,16.10
2017-11-03T13:50:54.343Z,16.00
2017-11-03T13:53:29.602Z,16.00
2017-11-03T13:56:03.654Z,16.00
2017-11-03T13:58:37.450Z,16.00
2017-11-03T14:01:11.510Z,15.90
2017-11-03T14:03:46.435Z,15.80
2017-11-03T14:06:21.026Z,15.80
2017-11-03T14:08:56.020Z,15.70
2017-11-03T14:11:31.100Z,15.60
2017-11-03T14:14:05.557Z,15.60
2017-11-03T14:16:40.717Z,15.50
2017-11-03T14:19:16.033Z,15.40
2017-11-03T14:21:50.410Z,15.30
2017-11-03T14:24:24.298Z,15.30
2017-11-03T14:26:58.410Z,15.20
2017-11-03T14:29:32.649Z,15.10
2017-11-03T14:32:07.343Z,15.20
2017-11-03T14:34:41.487Z,15.20
2017-11-03T14:37:16.098Z,15.10
2017-11-03T14:39:50.205Z,15.00
2017-11-03T14:42:23.957Z,14.90
2017-11-03T14:44:58.573Z,14.90
2017-11-03T14:47:34.341Z,14.90
2017-11-03T14:50:08.913Z,14.90
2017-11-03T14:52:42.959Z,14.90
2017-11-03T14:55:17.993Z,14.80
2017-11-03T14:57:53.578Z,14.80
2017-11-03T15:00:28.629Z,14.70
2017-11-03T15:03:03.155Z,14.70
2017-11-03T15:05:38.074Z,14.60
2017-11-03T15:08:12.351Z,14.60
2017-11-03T15:10:47.629Z,14.60
2017-11-03T15:13:21.498Z,14.50
2017-11-03T15:15:55.297Z,14.40
2017-11-03T15:18:30.569Z,14.40
2017-11-03T15:21:05.326Z,14.30
2017-11-03T15:23:39.990Z,14.30
2017-11-03T15:26:15.853Z,14.30
2017-11-03T15:28:50.808Z,14.20
2017-11-03T15:31:25.206Z,14.20
2017-11-03T15:34:00.030Z,14.10
2017-11-03T15:36:34.663Z,14.10
2017-11-03T15:39:10.117Z,14.00
2017-11-03T15:44:21.569Z,14.00
2017-11-03T15:49:30.961Z,13.90
2017-11-03T15:52:05.474Z,13.80
2017-11-03T15:54:40.241Z,13.80
2017-11-03T15:57:18.698Z,13.70
2017-11-03T15:59:52.818Z,13.70
2017-11-03T16:02:28.257Z,13.60
2017-11-03T16:05:02.646Z,13.60
2017-11-03T16:07:37.920Z,13.50
2017-11-03T16:10:14.318Z,13.50
2017-11-03T16:12:48.957Z,13.50
2017-11-03T16:15:23.951Z,13.50
2017-11-03T16:17:58.071Z,13.40
2017-11-03T16:20:31.877Z,13.40
2017-11-03T16:23:06.447Z,13.30
2017-11-03T16:25:41.505Z,13.20
2017-11-03T16:28:16.366Z,13.10
2017-11-03T16:30:50.972Z,13.10
2017-11-03T16:33:25.543Z,13.10
2017-11-03T16:36:00.751Z,13.10
2017-11-03T16:38:35.068Z,13.10
2017-11-03T16:41:10.525Z,13.10
2017-11-03T16:43:44.625Z,13.10
2017-11-03T16:46:20.302Z,13.10
2017-11-03T16:48:54.172Z,13.10
2017-11-03T16:51:28.697Z,13.00
2017-11-03T16:54:03.742Z,13.00
2017-11-03T16:56:38.561Z,13.00
2017-11-03T16:59:13.295Z,13.00
2017-11-03T17:01:47.623Z,12.90
2017-11-03T17:04:22.752Z,13.00
2017-11-03T17:06:57.885Z,12.90
2017-11-03T17:09:34.049Z,12.90
2017-11-03T17:12:09.088Z,12.90
2017-11-03T17:14:43.851Z,12.90
2017-11-03T17:17:18.907Z,12.90
2017-11-03T17:19:53.486Z,12.90
2017-11-03T17:22:28.468Z,12.90
2017-11-03T17:25:03.071Z,12.90
2017-11-03T17:27:37.387Z,12.90
2017-11-03T17:30:11.456Z,12.90
2017-11-03T17:32:46.056Z,12.80
2017-11-03T17:37:56.779Z,12.90
2017-11-03T17:40:31.405Z,12.80
2017-11-03T17:43:06.346Z,12.80
2017-11-03T17:45:40.605Z,12.80
2017-11-03T17:48:15.473Z,12.80
2017-11-03T17:50:49.915Z,12.80
2017-11-03T17:53:24.726Z,12.70
2017-11-03T17:55:59.148Z,12.70
2017-11-03T17:58:33.490Z,12.70
2017-11-03T18:01:08.229Z,12.60
2017-11-03T18:03:42.584Z,12.60
2017-11-03T18:06:17.205Z,12.60
2017-11-03T18:08:52.363Z,12.50
2017-11-03T18:11:26.376Z,12.50
2017-11-03T18:14:01.302Z,12.50
2017-11-03T18:16:35.884Z,12.40
2017-11-03T18:19:10.840Z,12.40
2017-11-03T18:21:45.689Z,12.40
2017-11-03T18:24:20.105Z,12.40
2017-11-03T18:26:55.730Z,12.40
2017-11-03T18:29:30.898Z,12.40
2017-11-03T18:32:05.183Z,12.40
2017-11-03T18:34:39.225Z,12.40
2017-11-03T18:37:13.704Z,12.40
2017-11-03T18:39:48.857Z,12.40
2017-11-03T18:42:23.315Z,12.30
2017-11-03T18:44:57.309Z,12.30
2017-11-03T18:47:31.627Z,12.30
2017-11-03T18:50:06.567Z,12.30
2017-11-03T18:52:41.337Z,12.30
2017-11-03T18:55:15.498Z,12.30
2017-11-03T18:57:49.547Z,12.30
2017-11-03T19:00:28.236Z,12.30
2017-11-03T19:03:05.981Z,12.30
2017-11-03T19:05:40.471Z,12.30
2017-11-03T19:08:16.106Z,12.20
2017-11-03T19:10:52.784Z,12.20
2017-11-03T19:13:27.689Z,12.20
2017-11-03T19:16:02.011Z,12.10
2017-11-03T19:18:36.747Z,12.10
2017-11-03T19:21:11.393Z,12.00
2017-11-03T19:23:45.228Z,11.90
2017-11-03T19:26:23.335Z,11.90
2017-11-03T19:28:58.953Z,11.90
2017-11-03T19:31:33.814Z,11.90
2017-11-03T19:34:09.074Z,11.80
2017-11-03T19:36:45.115Z,11.80
2017-11-03T19:39:20.187Z,11.80
2017-11-03T19:41:55.269Z,11.70
2017-11-03T19:47:07.609Z,11.60
2017-11-03T19:49:41.221Z,11.50
2017-11-03T19:52:16.148Z,11.50
2017-11-03T19:54:50.664Z,11.40
2017-11-03T19:57:25.096Z,11.30
2017-11-03T19:59:59.827Z,11.30
2017-11-03T20:02:34.662Z,11.30
2017-11-03T20:05:09.512Z,11.20
2017-11-03T20:07:44.377Z,11.20
2017-11-03T20:10:18.123Z,11.20
2017-11-03T20:12:53.030Z,11.10
2017-11-03T20:15:28.741Z,11.10
2017-11-03T20:18:02.957Z,11.20
2017-11-03T20:23:13.695Z,11.00
2017-11-03T20:25:48.940Z,11.00
2017-11-03T20:28:23.372Z,11.00
2017-11-03T20:30:57.406Z,11.00
2017-11-03T20:33:31.859Z,10.90
2017-11-03T20:36:05.845Z,10.90
2017-11-03T20:38:41.213Z,10.90
2017-11-03T20:41:15.448Z,10.90
2017-11-03T20:43:50.232Z,10.90
2017-11-03T20:46:24.999Z,10.80
2017-11-03T20:49:00.961Z,10.80
2017-11-03T20:51:35.544Z,10.80
2017-11-03T20:54:09.738Z,10.70
2017-11-03T20:56:44.146Z,10.70
2017-11-03T20:59:19.458Z,10.70
2017-11-03T21:01:54.582Z,10.70
2017-11-03T21:04:29.143Z,10.60
2017-11-03T21:07:03.228Z,10.60
2017-11-03T21:09:37.697Z,10.60
2017-11-03T21:12:13.049Z,10.60
2017-11-03T21:14:47.848Z,10.60
2017-11-03T21:17:22.025Z,10.60
2017-11-03T21:19:57.040Z,10.60
2017-11-03T21:22:31.052Z,10.50
2017-11-03T21:25:06.211Z,10.60
2017-11-03T21:27:41.606Z,10.50
2017-11-03T21:30:16.917Z,10.50
2017-11-03T21:32:51.469Z,10.50
2017-11-03T21:35:25.991Z,10.50
2017-11-03T21:37:59.849Z,10.50
2017-11-03T21:40:34.004Z,10.40
2017-11-03T21:43:08.577Z,10.40
2017-11-03T21:45:43.117Z,10.30
2017-11-03T21:48:17.297Z,10.30
2017-11-03T21:50:51.309Z,10.30
2017-11-03T21:53:26.295Z,10.30
2017-11-03T21:56:01.136Z,10.30
2017-11-03T21:58:35.605Z,10.30
2017-11-03T22:01:10.533Z,10.20
2017-11-03T22:03:45.227Z,10.20
2017-11-03T22:06:19.779Z,10.20
2017-11-03T22:08:54.228Z,10.10
2017-11-03T22:11:29.594Z,10.10
2017-11-03T22:14:03.451Z,10.10
2017-11-03T22:16:37.333Z,10.00
2017-11-03T22:19:12.414Z,10.00
2017-11-03T22:21:47.662Z,10.00
2017-11-03T22:24:22.002Z,10.00
2017-11-03T22:26:56.452Z,10.00
2017-11-03T22:29:30.845Z,10.00
2017-11-03T22:32:06.204Z,10.00
2017-11-03T22:37:16.873Z,10.00
2017-11-03T22:39:51.661Z,9.90
2017-11-03T22:42:26.282Z,9.90
2017-11-03T22:45:01.439Z,9.80
2017-11-03T22:47:36.480Z,9.70
2017-11-03T22:50:10.897Z,9.70
2017-11-03T22:52:46.044Z,9.70
2017-11-03T22:55:20.305Z,9.70
2017-11-03T22:57:54.913Z,9.60
2017-11-03T23:00:29.379Z,9.70
2017-11-03T23:03:04.286Z,9.70
2017-11-03T23:05:38.015Z,9.70
2017-11-03T23:08:12.581Z,9.60
2017-11-03T23:10:47.689Z,9.60
2017-11-03T23:13:21.922Z,9.60
2017-11-03T23:15:57.838Z,9.60
2017-11-03T23:18:32.110Z,9.60
2017-11-03T23:21:06.600Z,9.60
2017-11-03T23:23:40.443Z,9.50
2017-11-03T23:26:14.295Z,9.50
2017-11-03T23:28:49.177Z,9.50
2017-11-03T23:31:23.647Z,9.30
2017-11-03T23:33:57.625Z,9.50
2017-11-03T23:36:32.521Z,9.40
2017-11-03T23:39:07.492Z,9.40
2017-11-03T23:41:41.154Z,9.40
2017-11-03T23:44:15.790Z,9.40
2017-11-03T23:46:51.605Z,9.40
2017-11-03T23:49:25.276Z,9.40
2017-11-03T23:51:59.914Z,9.40
2017-11-03T23:54:34.690Z,9.40
2017-11-03T23:57:09.253Z,9.30
2017-11-03T23:59:43.901Z,9.30
